sensor_id;sensor_type;location;lat;lon;timestamp;P1;durP1;ratioP1;P2;durP2;ratioP2
18544;SDS011;9402;51.460;7.276;2022-11-21T00:01:34;41.50;;;15.63;;
18544;SDS011;9402;51.460;7.276;2022-11-21T00:03:37;45.88;;;16.90;;
18544;SDS011;9402;51.460;7.276;2022-11-21T00:05:40;38.80;;;14.75;;
18544;SDS011;9402;51.460;7.276;2022-11-21T00:07:43;43.72;;;13.90;;
18544;SDS011;9402;51.460;7.276;2022-11-21T00:09:46;40.22;;;16.00;;
18544;SDS011;9402;51.460;7.276;2022-11-21T00:11:49;29.58;;;13.48;;
18544;SDS011;9402;51.460;7.276;2022-11-21T00:13:53;48.00;;;14.88;;
18544;SDS011;9402;51.460;7.276;2022-11-21T00:15:55;41.63;;;14.10;;
18544;SDS011;9402;51.460;7.276;2022-11-21T00:18:02;41.08;;;14.60;;
18544;SDS011;9402;51.460;7.276;2022-11-21T00:20:05;37.58;;;14.82;;
18544;SDS011;9402;51.460;7.276;2022-11-21T00:22:08;33.35;;;13.10;;
18544;SDS011;9402;51.460;7.276;2022-11-21T00:24:11;31.30;;;11.73;;
18544;SDS011;9402;51.460;7.276;2022-11-21T00:26:14;31.92;;;12.57;;
18544;SDS011;9402;51.460;7.276;2022-11-21T00:28:17;30.48;;;12.23;;
18544;SDS011;9402;51.460;7.276;2022-11-21T00:30:20;33.88;;;13.23;;
18544;SDS011;9402;51.460;7.276;2022-11-21T00:32:23;35.97;;;13.55;;
18544;SDS011;9402;51.460;7.276;2022-11-21T00:34:25;35.03;;;14.73;;
18544;SDS011;9402;51.460;7.276;2022-11-21T00:36:28;35.80;;;14.98;;
18544;SDS011;9402;51.460;7.276;2022-11-21T00:38:30;37.03;;;12.93;;
18544;SDS011;9402;51.460;7.276;2022-11-21T00:40:32;34.75;;;12.07;;
18544;SDS011;9402;51.460;7.276;2022-11-21T00:42:35;37.50;;;14.02;;
18544;SDS011;9402;51.460;7.276;2022-11-21T00:44:37;37.65;;;14.35;;
18544;SDS011;9402;51.460;7.276;2022-11-21T00:46:41;40.55;;;13.95;;
18544;SDS011;9402;51.460;7.276;2022-11-21T00:48:43;35.00;;;13.20;;
18544;SDS011;9402;51.460;7.276;2022-11-21T00:50:47;39.53;;;14.32;;
18544;SDS011;9402;51.460;7.276;2022-11-21T00:52:53;32.40;;;13.00;;
18544;SDS011;9402;51.460;7.276;2022-11-21T00:54:56;34.53;;;12.48;;
18544;SDS011;9402;51.460;7.276;2022-11-21T00:56:58;39.97;;;13.65;;
18544;SDS011;9402;51.460;7.276;2022-11-21T00:59:01;38.42;;;13.80;;
18544;SDS011;9402;51.460;7.276;2022-11-21T01:01:04;36.92;;;14.30;;
18544;SDS011;9402;51.460;7.276;2022-11-21T01:03:09;39.85;;;13.52;;
18544;SDS011;9402;51.460;7.276;2022-11-21T01:05:11;32.90;;;14.10;;
18544;SDS011;9402;51.460;7.276;2022-11-21T01:07:13;44.20;;;15.88;;
18544;SDS011;9402;51.460;7.276;2022-11-21T01:09:16;43.10;;;15.23;;
18544;SDS011;9402;51.460;7.276;2022-11-21T01:11:19;44.72;;;15.07;;
18544;SDS011;9402;51.460;7.276;2022-11-21T01:13:21;47.20;;;16.85;;
18544;SDS011;9402;51.460;7.276;2022-11-21T01:15:24;45.05;;;15.20;;
18544;SDS011;9402;51.460;7.276;2022-11-21T01:17:26;41.80;;;16.52;;
18544;SDS011;9402;51.460;7.276;2022-11-21T01:19:30;40.17;;;14.50;;
18544;SDS011;9402;51.460;7.276;2022-11-21T01:21:32;44.97;;;16.90;;
18544;SDS011;9402;51.460;7.276;2022-11-21T01:23:35;39.78;;;15.25;;
18544;SDS011;9402;51.460;7.276;2022-11-21T01:25:37;39.92;;;14.63;;
18544;SDS011;9402;51.460;7.276;2022-11-21T01:27:39;53.38;;;16.20;;
18544;SDS011;9402;51.460;7.276;2022-11-21T01:29:42;36.60;;;16.23;;
18544;SDS011;9402;51.460;7.276;2022-11-21T01:31:44;36.72;;;14.48;;
18544;SDS011;9402;51.460;7.276;2022-11-21T01:33:47;46.80;;;17.52;;
18544;SDS011;9402;51.460;7.276;2022-11-21T01:35:51;52.22;;;16.88;;
18544;SDS011;9402;51.460;7.276;2022-11-21T01:37:53;43.83;;;15.57;;
18544;SDS011;9402;51.460;7.276;2022-11-21T01:39:55;39.80;;;16.73;;
18544;SDS011;9402;51.460;7.276;2022-11-21T01:41:58;38.22;;;16.08;;
18544;SDS011;9402;51.460;7.276;2022-11-21T01:44:05;48.22;;;15.57;;
18544;SDS011;9402;51.460;7.276;2022-11-21T01:46:14;48.78;;;15.75;;
18544;SDS011;9402;51.460;7.276;2022-11-21T01:48:17;45.75;;;16.17;;
18544;SDS011;9402;51.460;7.276;2022-11-21T01:50:20;54.00;;;17.52;;
18544;SDS011;9402;51.460;7.276;2022-11-21T01:52:24;41.40;;;17.85;;
18544;SDS011;9402;51.460;7.276;2022-11-21T01:54:28;46.45;;;17.67;;
18544;SDS011;9402;51.460;7.276;2022-11-21T01:56:33;46.60;;;16.73;;
18544;SDS011;9402;51.460;7.276;2022-11-21T01:58:37;53.13;;;15.70;;
18544;SDS011;9402;51.460;7.276;2022-11-21T02:00:41;46.03;;;16.95;;
18544;SDS011;9402;51.460;7.276;2022-11-21T02:02:45;43.17;;;15.40;;
18544;SDS011;9402;51.460;7.276;2022-11-21T02:04:49;48.78;;;16.98;;
18544;SDS011;9402;51.460;7.276;2022-11-21T02:06:53;42.45;;;16.67;;
18544;SDS011;9402;51.460;7.276;2022-11-21T02:08:57;58.35;;;19.08;;
18544;SDS011;9402;51.460;7.276;2022-11-21T02:11:03;45.85;;;17.02;;
18544;SDS011;9402;51.460;7.276;2022-11-21T02:13:11;50.33;;;18.42;;
18544;SDS011;9402;51.460;7.276;2022-11-21T02:15:13;56.78;;;18.00;;
18544;SDS011;9402;51.460;7.276;2022-11-21T02:17:16;48.60;;;15.95;;
18544;SDS011;9402;51.460;7.276;2022-11-21T02:19:21;57.17;;;17.48;;
18544;SDS011;9402;51.460;7.276;2022-11-21T02:21:30;45.45;;;15.98;;
18544;SDS011;9402;51.460;7.276;2022-11-21T02:23:38;44.72;;;15.60;;
18544;SDS011;9402;51.460;7.276;2022-11-21T02:25:46;51.95;;;15.10;;
18544;SDS011;9402;51.460;7.276;2022-11-21T02:27:51;46.58;;;15.55;;
18544;SDS011;9402;51.460;7.276;2022-11-21T02:29:55;45.38;;;15.43;;
18544;SDS011;9402;51.460;7.276;2022-11-21T02:31:58;50.83;;;17.10;;
18544;SDS011;9402;51.460;7.276;2022-11-21T02:34:00;49.53;;;17.77;;
18544;SDS011;9402;51.460;7.276;2022-11-21T02:36:03;50.55;;;18.15;;
18544;SDS011;9402;51.460;7.276;2022-11-21T02:38:21;46.58;;;15.63;;
18544;SDS011;9402;51.460;7.276;2022-11-21T02:40:27;45.40;;;16.40;;
18544;SDS011;9402;51.460;7.276;2022-11-21T02:42:33;66.95;;;17.65;;
18544;SDS011;9402;51.460;7.276;2022-11-21T02:44:39;42.88;;;16.45;;
18544;SDS011;9402;51.460;7.276;2022-11-21T02:46:45;57.13;;;16.65;;
18544;SDS011;9402;51.460;7.276;2022-11-21T02:48:49;47.58;;;16.50;;
18544;SDS011;9402;51.460;7.276;2022-11-21T02:50:51;50.65;;;17.73;;
18544;SDS011;9402;51.460;7.276;2022-11-21T02:52:54;50.95;;;19.80;;
18544;SDS011;9402;51.460;7.276;2022-11-21T02:54:56;62.75;;;17.52;;
18544;SDS011;9402;51.460;7.276;2022-11-21T02:56:59;47.97;;;17.30;;
18544;SDS011;9402;51.460;7.276;2022-11-21T02:59:02;52.50;;;17.52;;
18544;SDS011;9402;51.460;7.276;2022-11-21T03:01:05;56.97;;;17.73;;
18544;SDS011;9402;51.460;7.276;2022-11-21T03:03:07;51.80;;;16.80;;
18544;SDS011;9402;51.460;7.276;2022-11-21T03:05:10;53.70;;;17.90;;
18544;SDS011;9402;51.460;7.276;2022-11-21T03:07:15;43.10;;;17.42;;
18544;SDS011;9402;51.460;7.276;2022-11-21T03:09:17;43.45;;;16.75;;
18544;SDS011;9402;51.460;7.276;2022-11-21T03:11:19;53.40;;;17.27;;
18544;SDS011;9402;51.460;7.276;2022-11-21T03:13:22;53.47;;;18.50;;
18544;SDS011;9402;51.460;7.276;2022-11-21T03:15:26;48.15;;;16.73;;
18544;SDS011;9402;51.460;7.276;2022-11-21T03:17:29;54.53;;;17.73;;
18544;SDS011;9402;51.460;7.276;2022-11-21T03:19:31;44.78;;;17.27;;
18544;SDS011;9402;51.460;7.276;2022-11-21T03:21:33;44.10;;;16.40;;
18544;SDS011;9402;51.460;7.276;2022-11-21T03:23:36;42.50;;;16.30;;
18544;SDS011;9402;51.460;7.276;2022-11-21T03:25:38;47.13;;;17.13;;
18544;SDS011;9402;51.460;7.276;2022-11-21T03:27:40;52.78;;;16.27;;
18544;SDS011;9402;51.460;7.276;2022-11-21T03:29:43;57.25;;;18.42;;
18544;SDS011;9402;51.460;7.276;2022-11-21T03:31:47;45.13;;;16.13;;
18544;SDS011;9402;51.460;7.276;2022-11-21T03:33:49;51.92;;;16.02;;
18544;SDS011;9402;51.460;7.276;2022-11-21T03:35:51;46.38;;;14.68;;
18544;SDS011;9402;51.460;7.276;2022-11-21T03:37:54;43.47;;;15.88;;
18544;SDS011;9402;51.460;7.276;2022-11-21T03:39:56;45.25;;;15.70;;
18544;SDS011;9402;51.460;7.276;2022-11-21T03:41:58;41.70;;;15.05;;
18544;SDS011;9402;51.460;7.276;2022-11-21T03:44:02;36.92;;;13.80;;
18544;SDS011;9402;51.460;7.276;2022-11-21T03:46:05;36.33;;;13.80;;
18544;SDS011;9402;51.460;7.276;2022-11-21T03:48:09;40.45;;;14.77;;
18544;SDS011;9402;51.460;7.276;2022-11-21T03:50:12;33.55;;;13.13;;
18544;SDS011;9402;51.460;7.276;2022-11-21T03:52:17;41.58;;;15.73;;
18544;SDS011;9402;51.460;7.276;2022-11-21T03:54:20;38.33;;;13.82;;
18544;SDS011;9402;51.460;7.276;2022-11-21T03:56:23;41.60;;;14.15;;
18544;SDS011;9402;51.460;7.276;2022-11-21T03:58:26;36.85;;;13.77;;
18544;SDS011;9402;51.460;7.276;2022-11-21T04:00:28;36.00;;;13.82;;
18544;SDS011;9402;51.460;7.276;2022-11-21T04:02:31;38.85;;;14.95;;
18544;SDS011;9402;51.460;7.276;2022-11-21T04:04:34;36.15;;;13.40;;
18544;SDS011;9402;51.460;7.276;2022-11-21T04:06:37;33.10;;;12.50;;
18544;SDS011;9402;51.460;7.276;2022-11-21T04:08:39;42.80;;;14.43;;
18544;SDS011;9402;51.460;7.276;2022-11-21T04:10:45;41.05;;;14.35;;
18544;SDS011;9402;51.460;7.276;2022-11-21T04:12:47;39.20;;;12.52;;
18544;SDS011;9402;51.460;7.276;2022-11-21T04:14:50;32.88;;;14.77;;
18544;SDS011;9402;51.460;7.276;2022-11-21T04:16:52;33.72;;;12.30;;
18544;SDS011;9402;51.460;7.276;2022-11-21T04:18:54;31.85;;;12.18;;
18544;SDS011;9402;51.460;7.276;2022-11-21T04:20:58;36.70;;;13.57;;
18544;SDS011;9402;51.460;7.276;2022-11-21T04:23:02;38.25;;;15.02;;
18544;SDS011;9402;51.460;7.276;2022-11-21T04:25:05;34.28;;;12.90;;
18544;SDS011;9402;51.460;7.276;2022-11-21T04:27:08;40.17;;;14.55;;
18544;SDS011;9402;51.460;7.276;2022-11-21T04:29:10;32.25;;;14.35;;
18544;SDS011;9402;51.460;7.276;2022-11-21T04:31:12;36.00;;;13.73;;
18544;SDS011;9402;51.460;7.276;2022-11-21T04:33:15;39.55;;;13.30;;
18544;SDS011;9402;51.460;7.276;2022-11-21T04:35:18;34.47;;;13.23;;
18544;SDS011;9402;51.460;7.276;2022-11-21T04:37:22;33.42;;;13.70;;
18544;SDS011;9402;51.460;7.276;2022-11-21T04:39:24;40.72;;;13.70;;
18544;SDS011;9402;51.460;7.276;2022-11-21T04:41:27;36.67;;;12.88;;
18544;SDS011;9402;51.460;7.276;2022-11-21T04:43:29;35.08;;;13.60;;
18544;SDS011;9402;51.460;7.276;2022-11-21T04:45:30;46.15;;;15.70;;
18544;SDS011;9402;51.460;7.276;2022-11-21T04:47:34;32.45;;;13.02;;
18544;SDS011;9402;51.460;7.276;2022-11-21T04:49:37;34.13;;;14.05;;
18544;SDS011;9402;51.460;7.276;2022-11-21T04:51:39;39.78;;;14.65;;
18544;SDS011;9402;51.460;7.276;2022-11-21T04:53:43;32.72;;;12.93;;
18544;SDS011;9402;51.460;7.276;2022-11-21T04:55:45;32.35;;;13.65;;
18544;SDS011;9402;51.460;7.276;2022-11-21T04:57:48;41.55;;;14.25;;
18544;SDS011;9402;51.460;7.276;2022-11-21T04:59:50;43.60;;;15.85;;
18544;SDS011;9402;51.460;7.276;2022-11-21T05:01:53;40.78;;;14.40;;
18544;SDS011;9402;51.460;7.276;2022-11-21T05:03:55;43.50;;;15.18;;
18544;SDS011;9402;51.460;7.276;2022-11-21T05:05:58;45.42;;;14.40;;
18544;SDS011;9402;51.460;7.276;2022-11-21T05:08:00;35.30;;;14.82;;
18544;SDS011;9402;51.460;7.276;2022-11-21T05:10:04;43.08;;;14.02;;
18544;SDS011;9402;51.460;7.276;2022-11-21T05:12:07;39.95;;;14.95;;
18544;SDS011;9402;51.460;7.276;2022-11-21T05:14:27;42.50;;;15.65;;
18544;SDS011;9402;51.460;7.276;2022-11-21T05:16:31;37.67;;;14.23;;
18544;SDS011;9402;51.460;7.276;2022-11-21T05:18:33;44.35;;;13.70;;
18544;SDS011;9402;51.460;7.276;2022-11-21T05:20:35;44.63;;;16.60;;
18544;SDS011;9402;51.460;7.276;2022-11-21T05:22:38;46.03;;;14.77;;
18544;SDS011;9402;51.460;7.276;2022-11-21T05:24:40;50.95;;;15.27;;
18544;SDS011;9402;51.460;7.276;2022-11-21T05:26:44;36.53;;;14.00;;
18544;SDS011;9402;51.460;7.276;2022-11-21T05:28:46;48.60;;;15.40;;
18544;SDS011;9402;51.460;7.276;2022-11-21T05:30:49;37.90;;;14.80;;
18544;SDS011;9402;51.460;7.276;2022-11-21T05:32:51;45.33;;;15.82;;
18544;SDS011;9402;51.460;7.276;2022-11-21T05:34:53;46.80;;;17.83;;
18544;SDS011;9402;51.460;7.276;2022-11-21T05:36:56;38.20;;;13.27;;
18544;SDS011;9402;51.460;7.276;2022-11-21T05:38:58;40.72;;;15.05;;
18544;SDS011;9402;51.460;7.276;2022-11-21T05:41:01;48.67;;;16.52;;
18544;SDS011;9402;51.460;7.276;2022-11-21T05:43:04;44.45;;;14.50;;
18544;SDS011;9402;51.460;7.276;2022-11-21T05:45:24;41.85;;;14.85;;
18544;SDS011;9402;51.460;7.276;2022-11-21T05:47:26;44.13;;;14.85;;
18544;SDS011;9402;51.460;7.276;2022-11-21T05:49:29;57.97;;;18.10;;
18544;SDS011;9402;51.460;7.276;2022-11-21T05:51:31;35.92;;;13.05;;
18544;SDS011;9402;51.460;7.276;2022-11-21T05:53:34;47.35;;;15.90;;
18544;SDS011;9402;51.460;7.276;2022-11-21T05:55:36;57.95;;;17.52;;
18544;SDS011;9402;51.460;7.276;2022-11-21T05:57:38;53.50;;;16.00;;
18544;SDS011;9402;51.460;7.276;2022-11-21T05:59:42;47.05;;;16.08;;
18544;SDS011;9402;51.460;7.276;2022-11-21T06:01:44;52.42;;;17.25;;
18544;SDS011;9402;51.460;7.276;2022-11-21T06:04:04;45.13;;;14.75;;
18544;SDS011;9402;51.460;7.276;2022-11-21T06:06:07;44.92;;;16.05;;
18544;SDS011;9402;51.460;7.276;2022-11-21T06:08:11;46.83;;;15.95;;
18544;SDS011;9402;51.460;7.276;2022-11-21T06:10:13;51.28;;;16.88;;
18544;SDS011;9402;51.460;7.276;2022-11-21T06:12:16;50.13;;;15.20;;
18544;SDS011;9402;51.460;7.276;2022-11-21T06:14:19;47.97;;;16.80;;
18544;SDS011;9402;51.460;7.276;2022-11-21T06:16:23;41.53;;;14.90;;
18544;SDS011;9402;51.460;7.276;2022-11-21T06:18:25;47.42;;;15.85;;
18544;SDS011;9402;51.460;7.276;2022-11-21T06:20:28;54.78;;;15.52;;
18544;SDS011;9402;51.460;7.276;2022-11-21T06:22:30;43.83;;;14.80;;
18544;SDS011;9402;51.460;7.276;2022-11-21T06:24:32;57.65;;;17.88;;
18544;SDS011;9402;51.460;7.276;2022-11-21T06:26:35;71.13;;;17.42;;
18544;SDS011;9402;51.460;7.276;2022-11-21T06:28:38;52.97;;;16.20;;
18544;SDS011;9402;51.460;7.276;2022-11-21T06:30:41;50.40;;;17.10;;
18544;SDS011;9402;51.460;7.276;2022-11-21T06:32:46;51.38;;;16.60;;
18544;SDS011;9402;51.460;7.276;2022-11-21T06:34:49;42.67;;;14.50;;
18544;SDS011;9402;51.460;7.276;2022-11-21T06:36:51;47.75;;;18.05;;
18544;SDS011;9402;51.460;7.276;2022-11-21T06:38:54;55.55;;;17.88;;
18544;SDS011;9402;51.460;7.276;2022-11-21T06:40:56;58.28;;;16.90;;
18544;SDS011;9402;51.460;7.276;2022-11-21T06:42:59;52.90;;;16.20;;
18544;SDS011;9402;51.460;7.276;2022-11-21T06:45:01;49.15;;;17.05;;
18544;SDS011;9402;51.460;7.276;2022-11-21T06:47:04;52.60;;;15.93;;
18544;SDS011;9402;51.460;7.276;2022-11-21T06:49:07;51.33;;;18.17;;
18544;SDS011;9402;51.460;7.276;2022-11-21T06:51:11;47.90;;;15.80;;
18544;SDS011;9402;51.460;7.276;2022-11-21T06:53:16;50.25;;;16.95;;
18544;SDS011;9402;51.460;7.276;2022-11-21T06:55:19;59.38;;;18.35;;
18544;SDS011;9402;51.460;7.276;2022-11-21T06:57:22;59.40;;;16.58;;
18544;SDS011;9402;51.460;7.276;2022-11-21T06:59:24;50.28;;;16.75;;
18544;SDS011;9402;51.460;7.276;2022-11-21T07:01:27;55.25;;;17.25;;
18544;SDS011;9402;51.460;7.276;2022-11-21T07:03:29;64.40;;;19.05;;
18544;SDS011;9402;51.460;7.276;2022-11-21T07:05:33;56.92;;;17.50;;
18544;SDS011;9402;51.460;7.276;2022-11-21T07:07:35;53.28;;;16.23;;
18544;SDS011;9402;51.460;7.276;2022-11-21T07:09:38;69.60;;;19.60;;
18544;SDS011;9402;51.460;7.276;2022-11-21T07:11:40;53.05;;;16.83;;
18544;SDS011;9402;51.460;7.276;2022-11-21T07:13:43;65.40;;;22.38;;
18544;SDS011;9402;51.460;7.276;2022-11-21T07:15:45;63.08;;;19.83;;
18544;SDS011;9402;51.460;7.276;2022-11-21T07:17:47;68.30;;;18.17;;
18544;SDS011;9402;51.460;7.276;2022-11-21T07:19:50;56.53;;;18.10;;
18544;SDS011;9402;51.460;7.276;2022-11-21T07:21:54;62.22;;;17.50;;
18544;SDS011;9402;51.460;7.276;2022-11-21T07:23:56;56.55;;;17.02;;
18544;SDS011;9402;51.460;7.276;2022-11-21T07:25:58;74.47;;;18.25;;
18544;SDS011;9402;51.460;7.276;2022-11-21T07:28:01;54.22;;;18.05;;
18544;SDS011;9402;51.460;7.276;2022-11-21T07:30:04;60.42;;;18.65;;
18544;SDS011;9402;51.460;7.276;2022-11-21T07:32:08;57.53;;;17.98;;
18544;SDS011;9402;51.460;7.276;2022-11-21T07:34:11;65.55;;;18.50;;
18544;SDS011;9402;51.460;7.276;2022-11-21T07:36:13;58.17;;;18.38;;
18544;SDS011;9402;51.460;7.276;2022-11-21T07:38:17;51.28;;;16.65;;
18544;SDS011;9402;51.460;7.276;2022-11-21T07:40:20;58.58;;;15.65;;
18544;SDS011;9402;51.460;7.276;2022-11-21T07:42:22;53.72;;;17.20;;
18544;SDS011;9402;51.460;7.276;2022-11-21T07:44:24;51.28;;;15.75;;
18544;SDS011;9402;51.460;7.276;2022-11-21T07:46:27;52.30;;;16.35;;
18544;SDS011;9402;51.460;7.276;2022-11-21T07:48:29;53.03;;;15.65;;
18544;SDS011;9402;51.460;7.276;2022-11-21T07:50:32;46.90;;;16.25;;
18544;SDS011;9402;51.460;7.276;2022-11-21T07:52:34;46.78;;;14.43;;
18544;SDS011;9402;51.460;7.276;2022-11-21T07:54:38;51.97;;;16.40;;
18544;SDS011;9402;51.460;7.276;2022-11-21T07:56:40;46.15;;;16.52;;
18544;SDS011;9402;51.460;7.276;2022-11-21T07:58:43;44.38;;;16.33;;
18544;SDS011;9402;51.460;7.276;2022-11-21T08:00:45;44.85;;;15.38;;
18544;SDS011;9402;51.460;7.276;2022-11-21T08:02:48;45.42;;;15.77;;
18544;SDS011;9402;51.460;7.276;2022-11-21T08:04:50;47.67;;;16.25;;
18544;SDS011;9402;51.460;7.276;2022-11-21T08:06:53;51.05;;;16.30;;
18544;SDS011;9402;51.460;7.276;2022-11-21T08:08:55;43.30;;;14.93;;
18544;SDS011;9402;51.460;7.276;2022-11-21T08:11:01;46.50;;;16.40;;
18544;SDS011;9402;51.460;7.276;2022-11-21T08:13:05;53.53;;;14.93;;
18544;SDS011;9402;51.460;7.276;2022-11-21T08:15:08;44.22;;;16.08;;
18544;SDS011;9402;51.460;7.276;2022-11-21T08:17:11;40.88;;;13.00;;
18544;SDS011;9402;51.460;7.276;2022-11-21T08:19:13;40.60;;;15.35;;
18544;SDS011;9402;51.460;7.276;2022-11-21T08:21:16;45.67;;;14.57;;
18544;SDS011;9402;51.460;7.276;2022-11-21T08:23:18;40.00;;;14.63;;
18544;SDS011;9402;51.460;7.276;2022-11-21T08:25:21;39.15;;;14.63;;
18544;SDS011;9402;51.460;7.276;2022-11-21T08:27:24;39.65;;;14.52;;
18544;SDS011;9402;51.460;7.276;2022-11-21T08:29:27;35.30;;;13.40;;
18544;SDS011;9402;51.460;7.276;2022-11-21T08:31:29;38.38;;;12.85;;
18544;SDS011;9402;51.460;7.276;2022-11-21T08:33:31;35.88;;;13.45;;
18544;SDS011;9402;51.460;7.276;2022-11-21T08:35:34;44.95;;;14.23;;
18544;SDS011;9402;51.460;7.276;2022-11-21T08:37:37;48.92;;;16.27;;
18544;SDS011;9402;51.460;7.276;2022-11-21T08:39:40;53.80;;;16.50;;
18544;SDS011;9402;51.460;7.276;2022-11-21T08:41:42;55.22;;;17.35;;
18544;SDS011;9402;51.460;7.276;2022-11-21T08:44:05;52.45;;;17.33;;
18544;SDS011;9402;51.460;7.276;2022-11-21T08:46:07;44.55;;;15.15;;
18544;SDS011;9402;51.460;7.276;2022-11-21T08:48:10;47.42;;;16.58;;
18544;SDS011;9402;51.460;7.276;2022-11-21T08:50:13;47.58;;;15.38;;
18544;SDS011;9402;51.460;7.276;2022-11-21T08:52:15;44.60;;;15.18;;
18544;SDS011;9402;51.460;7.276;2022-11-21T08:54:18;52.78;;;14.90;;
18544;SDS011;9402;51.460;7.276;2022-11-21T08:56:21;60.10;;;16.55;;
18544;SDS011;9402;51.460;7.276;2022-11-21T08:58:24;43.15;;;13.85;;
18544;SDS011;9402;51.460;7.276;2022-11-21T09:00:27;47.38;;;16.58;;
18544;SDS011;9402;51.460;7.276;2022-11-21T09:02:30;55.05;;;15.85;;
18544;SDS011;9402;51.460;7.276;2022-11-21T09:04:32;55.90;;;16.98;;
18544;SDS011;9402;51.460;7.276;2022-11-21T09:06:35;46.22;;;14.85;;
18544;SDS011;9402;51.460;7.276;2022-11-21T09:08:37;47.78;;;16.23;;
18544;SDS011;9402;51.460;7.276;2022-11-21T09:10:40;57.55;;;15.50;;
18544;SDS011;9402;51.460;7.276;2022-11-21T09:12:42;55.38;;;15.80;;
18544;SDS011;9402;51.460;7.276;2022-11-21T09:14:44;46.72;;;15.60;;
18544;SDS011;9402;51.460;7.276;2022-11-21T09:17:05;53.83;;;16.40;;
18544;SDS011;9402;51.460;7.276;2022-11-21T09:19:34;56.72;;;15.70;;
18544;SDS011;9402;51.460;7.276;2022-11-21T09:21:37;49.80;;;16.13;;
18544;SDS011;9402;51.460;7.276;2022-11-21T09:23:39;53.05;;;15.68;;
18544;SDS011;9402;51.460;7.276;2022-11-21T09:25:41;55.20;;;18.23;;
18544;SDS011;9402;51.460;7.276;2022-11-21T09:27:44;57.50;;;15.52;;
18544;SDS011;9402;51.460;7.276;2022-11-21T09:29:47;61.88;;;17.08;;
18544;SDS011;9402;51.460;7.276;2022-11-21T09:31:49;60.53;;;18.30;;
18544;SDS011;9402;51.460;7.276;2022-11-21T09:33:53;52.50;;;16.33;;
18544;SDS011;9402;51.460;7.276;2022-11-21T09:35:56;47.88;;;16.40;;
18544;SDS011;9402;51.460;7.276;2022-11-21T09:37:59;58.72;;;17.02;;
18544;SDS011;9402;51.460;7.276;2022-11-21T09:40:01;56.65;;;17.35;;
18544;SDS011;9402;51.460;7.276;2022-11-21T09:42:08;48.15;;;14.95;;
18544;SDS011;9402;51.460;7.276;2022-11-21T09:44:37;57.67;;;16.73;;
18544;SDS011;9402;51.460;7.276;2022-11-21T09:46:46;54.28;;;16.77;;
18544;SDS011;9402;51.460;7.276;2022-11-21T09:48:51;52.35;;;15.43;;
18544;SDS011;9402;51.460;7.276;2022-11-21T09:50:58;62.28;;;19.17;;
18544;SDS011;9402;51.460;7.276;2022-11-21T09:53:02;53.10;;;17.77;;
18544;SDS011;9402;51.460;7.276;2022-11-21T09:55:12;60.05;;;17.95;;
18544;SDS011;9402;51.460;7.276;2022-11-21T09:57:20;58.30;;;16.35;;
18544;SDS011;9402;51.460;7.276;2022-11-21T09:59:27;53.60;;;16.17;;
18544;SDS011;9402;51.460;7.276;2022-11-21T10:01:33;55.47;;;17.20;;
18544;SDS011;9402;51.460;7.276;2022-11-21T10:03:37;56.13;;;17.92;;
18544;SDS011;9402;51.460;7.276;2022-11-21T10:05:44;61.15;;;17.17;;
18544;SDS011;9402;51.460;7.276;2022-11-21T10:07:49;52.80;;;16.35;;
18544;SDS011;9402;51.460;7.276;2022-11-21T10:10:04;57.45;;;16.67;;
18544;SDS011;9402;51.460;7.276;2022-11-21T10:12:16;45.42;;;15.55;;
18544;SDS011;9402;51.460;7.276;2022-11-21T10:14:42;55.75;;;17.60;;
18544;SDS011;9402;51.460;7.276;2022-11-21T10:16:48;56.13;;;19.17;;
18544;SDS011;9402;51.460;7.276;2022-11-21T10:19:12;50.38;;;17.83;;
18544;SDS011;9402;51.460;7.276;2022-11-21T10:21:26;52.75;;;16.15;;
18544;SDS011;9402;51.460;7.276;2022-11-21T10:23:45;50.13;;;17.40;;
18544;SDS011;9402;51.460;7.276;2022-11-21T10:26:02;59.30;;;16.25;;
18544;SDS011;9402;51.460;7.276;2022-11-21T10:28:12;63.55;;;18.48;;
18544;SDS011;9402;51.460;7.276;2022-11-21T10:30:18;55.63;;;15.88;;
18544;SDS011;9402;51.460;7.276;2022-11-21T10:32:21;50.55;;;16.70;;
18544;SDS011;9402;51.460;7.276;2022-11-21T10:34:28;61.60;;;17.08;;
18544;SDS011;9402;51.460;7.276;2022-11-21T10:36:38;63.13;;;17.92;;
18544;SDS011;9402;51.460;7.276;2022-11-21T10:38:42;48.90;;;16.42;;
18544;SDS011;9402;51.460;7.276;2022-11-21T10:40:46;62.88;;;18.73;;
18544;SDS011;9402;51.460;7.276;2022-11-21T10:42:52;62.63;;;18.08;;
18544;SDS011;9402;51.460;7.276;2022-11-21T10:44:58;63.20;;;18.52;;
18544;SDS011;9402;51.460;7.276;2022-11-21T10:47:19;79.13;;;22.02;;
18544;SDS011;9402;51.460;7.276;2022-11-21T10:49:28;55.15;;;16.40;;
18544;SDS011;9402;51.460;7.276;2022-11-21T10:51:35;65.18;;;17.90;;
18544;SDS011;9402;51.460;7.276;2022-11-21T10:53:43;60.40;;;17.20;;
18544;SDS011;9402;51.460;7.276;2022-11-21T10:56:03;53.22;;;18.00;;
18544;SDS011;9402;51.460;7.276;2022-11-21T10:58:15;55.13;;;16.70;;
18544;SDS011;9402;51.460;7.276;2022-11-21T11:00:19;48.97;;;18.08;;
18544;SDS011;9402;51.460;7.276;2022-11-21T11:02:24;63.83;;;18.67;;
18544;SDS011;9402;51.460;7.276;2022-11-21T11:04:27;44.72;;;15.63;;
18544;SDS011;9402;51.460;7.276;2022-11-21T11:06:30;63.78;;;17.85;;
18544;SDS011;9402;51.460;7.276;2022-11-21T11:08:37;56.85;;;16.15;;
18544;SDS011;9402;51.460;7.276;2022-11-21T11:11:02;51.50;;;16.73;;
18544;SDS011;9402;51.460;7.276;2022-11-21T11:13:12;47.97;;;18.00;;
18544;SDS011;9402;51.460;7.276;2022-11-21T11:15:35;48.92;;;17.20;;
18544;SDS011;9402;51.460;7.276;2022-11-21T11:17:40;40.08;;;14.73;;
18544;SDS011;9402;51.460;7.276;2022-11-21T11:19:57;46.67;;;17.80;;
18544;SDS011;9402;51.460;7.276;2022-11-21T11:22:00;42.05;;;16.75;;
18544;SDS011;9402;51.460;7.276;2022-11-21T11:24:17;38.47;;;15.60;;
18544;SDS011;9402;51.460;7.276;2022-11-21T11:26:24;45.53;;;15.95;;
18544;SDS011;9402;51.460;7.276;2022-11-21T11:28:32;41.10;;;15.75;;
18544;SDS011;9402;51.460;7.276;2022-11-21T11:30:35;37.70;;;13.98;;
18544;SDS011;9402;51.460;7.276;2022-11-21T11:32:38;36.35;;;16.60;;
18544;SDS011;9402;51.460;7.276;2022-11-21T11:34:46;32.15;;;13.10;;
18544;SDS011;9402;51.460;7.276;2022-11-21T11:37:02;31.60;;;14.88;;
18544;SDS011;9402;51.460;7.276;2022-11-21T11:39:17;34.78;;;14.23;;
18544;SDS011;9402;51.460;7.276;2022-11-21T11:41:38;33.53;;;15.20;;
18544;SDS011;9402;51.460;7.276;2022-11-21T11:44:21;30.33;;;13.45;;
18544;SDS011;9402;51.460;7.276;2022-11-21T11:46:47;30.52;;;13.10;;
18544;SDS011;9402;51.460;7.276;2022-11-21T11:49:16;31.38;;;12.27;;
18544;SDS011;9402;51.460;7.276;2022-11-21T11:51:22;26.13;;;12.80;;
18544;SDS011;9402;51.460;7.276;2022-11-21T11:53:28;34.05;;;13.20;;
18544;SDS011;9402;51.460;7.276;2022-11-21T11:55:38;29.75;;;14.18;;
18544;SDS011;9402;51.460;7.276;2022-11-21T11:57:42;29.65;;;12.23;;
18544;SDS011;9402;51.460;7.276;2022-11-21T11:59:45;25.17;;;12.02;;
18544;SDS011;9402;51.460;7.276;2022-11-21T12:01:52;21.58;;;12.07;;
18544;SDS011;9402;51.460;7.276;2022-11-21T12:03:57;24.52;;;11.40;;
18544;SDS011;9402;51.460;7.276;2022-11-21T12:06:02;27.10;;;11.23;;
18544;SDS011;9402;51.460;7.276;2022-11-21T12:08:09;23.77;;;11.55;;
18544;SDS011;9402;51.460;7.276;2022-11-21T12:10:15;24.38;;;11.70;;
18544;SDS011;9402;51.460;7.276;2022-11-21T12:12:26;24.17;;;10.98;;
18544;SDS011;9402;51.460;7.276;2022-11-21T12:14:35;21.33;;;10.35;;
18544;SDS011;9402;51.460;7.276;2022-11-21T12:17:03;26.02;;;10.57;;
18544;SDS011;9402;51.460;7.276;2022-11-21T12:19:07;21.73;;;10.20;;
18544;SDS011;9402;51.460;7.276;2022-11-21T12:21:13;29.52;;;10.32;;